sensor_id;sensor_type;location;lat;lon;timestamp;pressure;altitude;pressure_sealevel;temperature;humidity
72395;BME280;60384;48.152;11.614;2023-05-08T00:00:40;95917.53;;;16.28;90.94
72395;BME280;60384;48.152;11.614;2023-05-08T00:03:42;95915.50;;;16.25;90.98
72395;BME280;60384;48.152;11.614;2023-05-08T00:06:45;95917.66;;;16.19;90.74
72395;BME280;60384;48.152;11.614;2023-05-08T00:09:47;95922.97;;;16.16;90.68
72395;BME280;60384;48.152;11.614;2023-05-08T00:12:49;95921.41;;;16.15;90.91
72395;BME280;60384;48.152;11.614;2023-05-08T00:15:50;95924.44;;;16.13;90.84
72395;BME280;60384;48.152;11.614;2023-05-08T00:18:52;95918.25;;;16.12;90.68
72395;BME280;60384;48.152;11.614;2023-05-08T00:21:55;95922.44;;;16.10;90.82
72395;BME280;60384;48.152;11.614;2023-05-08T00:24:57;95927.84;;;16.10;90.85
72395;BME280;60384;48.152;11.614;2023-05-08T00:27:58;95943.56;;;16.08;90.82
72395;BME280;60384;48.152;11.614;2023-05-08T00:31:00;95930.41;;;16.06;90.69
72395;BME280;60384;48.152;11.614;2023-05-08T00:34:02;95935.38;;;16.04;90.70
72395;BME280;60384;48.152;11.614;2023-05-08T00:37:05;95933.47;;;16.05;90.68
72395;BME280;60384;48.152;11.614;2023-05-08T00:40:07;95934.25;;;16.05;90.84
72395;BME280;60384;48.152;11.614;2023-05-08T00:43:09;95929.56;;;16.02;90.90
72395;BME280;60384;48.152;11.614;2023-05-08T00:46:11;95926.44;;;16.00;91.00
72395;BME280;60384;48.152;11.614;2023-05-08T00:49:13;95927.88;;;15.98;90.68
72395;BME280;60384;48.152;11.614;2023-05-08T00:52:17;95921.72;;;15.97;90.84
72395;BME280;60384;48.152;11.614;2023-05-08T00:55:19;95916.25;;;15.94;90.66
72395;BME280;60384;48.152;11.614;2023-05-08T00:58:24;95921.97;;;15.92;90.67
72395;BME280;60384;48.152;11.614;2023-05-08T01:01:27;95918.50;;;15.92;90.73
72395;BME280;60384;48.152;11.614;2023-05-08T01:04:29;95921.19;;;15.92;90.56
72395;BME280;60384;48.152;11.614;2023-05-08T01:07:32;95920.72;;;15.90;90.72
72395;BME280;60384;48.152;11.614;2023-05-08T01:10:43;95922.63;;;15.89;90.71
72395;BME280;60384;48.152;11.614;2023-05-08T01:13:51;95927.16;;;15.85;90.82
72395;BME280;60384;48.152;11.614;2023-05-08T01:16:55;95927.50;;;15.84;90.75
72395;BME280;60384;48.152;11.614;2023-05-08T01:20:03;95935.56;;;15.84;90.97
72395;BME280;60384;48.152;11.614;2023-05-08T01:23:31;95934.03;;;15.83;90.72
72395;BME280;60384;48.152;11.614;2023-05-08T01:26:41;95935.50;;;15.80;90.94
72395;BME280;60384;48.152;11.614;2023-05-08T01:33:15;95944.47;;;15.72;90.55
72395;BME280;60384;48.152;11.614;2023-05-08T01:36:20;95950.91;;;15.67;90.96
72395;BME280;60384;48.152;11.614;2023-05-08T01:39:25;95958.00;;;15.60;90.75
72395;BME280;60384;48.152;11.614;2023-05-08T01:42:33;95964.53;;;15.59;90.92
72395;BME280;60384;48.152;11.614;2023-05-08T01:45:37;95957.22;;;15.59;90.68
72395;BME280;60384;48.152;11.614;2023-05-08T01:48:42;95966.88;;;15.60;90.62
72395;BME280;60384;48.152;11.614;2023-05-08T01:51:45;95963.72;;;15.58;90.76
72395;BME280;60384;48.152;11.614;2023-05-08T01:54:49;95967.53;;;15.57;90.80
72395;BME280;60384;48.152;11.614;2023-05-08T01:57:52;95973.97;;;15.53;91.03
72395;BME280;60384;48.152;11.614;2023-05-08T02:00:54;95966.09;;;15.48;90.98
72395;BME280;60384;48.152;11.614;2023-05-08T02:03:58;95964.41;;;15.43;90.72
72395;BME280;60384;48.152;11.614;2023-05-08T02:07:00;95963.50;;;15.39;90.96
72395;BME280;60384;48.152;11.614;2023-05-08T02:10:03;95973.84;;;15.37;90.81
72395;BME280;60384;48.152;11.614;2023-05-08T02:13:05;95968.34;;;15.34;90.69
72395;BME280;60384;48.152;11.614;2023-05-08T02:16:07;95973.97;;;15.28;90.55
72395;BME280;60384;48.152;11.614;2023-05-08T02:19:12;95971.97;;;15.25;90.72
72395;BME280;60384;48.152;11.614;2023-05-08T02:22:14;95972.28;;;15.24;90.58
72395;BME280;60384;48.152;11.614;2023-05-08T02:25:17;95971.41;;;15.20;90.63
72395;BME280;60384;48.152;11.614;2023-05-08T02:28:19;95975.44;;;15.14;90.60
72395;BME280;60384;48.152;11.614;2023-05-08T02:31:21;95969.50;;;15.08;90.62
72395;BME280;60384;48.152;11.614;2023-05-08T02:34:26;95970.50;;;15.04;90.59
72395;BME280;60384;48.152;11.614;2023-05-08T02:37:28;95981.16;;;15.00;90.50
72395;BME280;60384;48.152;11.614;2023-05-08T02:40:31;95974.56;;;14.98;90.91
72395;BME280;60384;48.152;11.614;2023-05-08T02:43:34;95976.00;;;14.95;90.81
72395;BME280;60384;48.152;11.614;2023-05-08T02:46:38;95976.56;;;14.88;90.65
72395;BME280;60384;48.152;11.614;2023-05-08T02:49:47;95982.16;;;14.83;90.96
72395;BME280;60384;48.152;11.614;2023-05-08T02:52:51;95988.22;;;14.80;90.72
72395;BME280;60384;48.152;11.614;2023-05-08T02:55:56;95989.22;;;14.76;90.84
72395;BME280;60384;48.152;11.614;2023-05-08T02:59:01;95997.28;;;14.76;91.05
72395;BME280;60384;48.152;11.614;2023-05-08T03:02:08;95982.94;;;14.72;91.12
72395;BME280;60384;48.152;11.614;2023-05-08T03:05:14;95990.91;;;14.68;90.77
72395;BME280;60384;48.152;11.614;2023-05-08T03:08:18;95990.75;;;14.65;90.83
72395;BME280;60384;48.152;11.614;2023-05-08T03:11:21;95988.88;;;14.65;90.76
72395;BME280;60384;48.152;11.614;2023-05-08T03:14:26;95996.50;;;14.63;91.03
72395;BME280;60384;48.152;11.614;2023-05-08T03:17:29;95989.88;;;14.61;91.12
72395;BME280;60384;48.152;11.614;2023-05-08T03:20:35;95983.13;;;14.55;90.76
72395;BME280;60384;48.152;11.614;2023-05-08T03:23:37;95987.84;;;14.45;90.54
72395;BME280;60384;48.152;11.614;2023-05-08T03:26:41;95990.59;;;14.37;90.83
72395;BME280;60384;48.152;11.614;2023-05-08T03:29:43;95993.16;;;14.33;90.73
72395;BME280;60384;48.152;11.614;2023-05-08T03:32:46;95998.06;;;14.31;91.08
72395;BME280;60384;48.152;11.614;2023-05-08T03:35:49;95995.69;;;14.30;91.04
72395;BME280;60384;48.152;11.614;2023-05-08T03:38:51;95994.47;;;14.27;90.61
72395;BME280;60384;48.152;11.614;2023-05-08T03:41:54;95994.00;;;14.25;90.78
72395;BME280;60384;48.152;11.614;2023-05-08T03:44:57;95992.44;;;14.24;90.69
72395;BME280;60384;48.152;11.614;2023-05-08T03:47:59;96000.16;;;14.26;91.02
72395;BME280;60384;48.152;11.614;2023-05-08T03:51:04;95993.44;;;14.20;91.27
72395;BME280;60384;48.152;11.614;2023-05-08T03:54:08;96005.50;;;14.14;90.91
72395;BME280;60384;48.152;11.614;2023-05-08T03:57:10;96003.47;;;14.11;90.74
72395;BME280;60384;48.152;11.614;2023-05-08T04:00:13;96010.97;;;14.05;91.12
72395;BME280;60384;48.152;11.614;2023-05-08T04:03:20;96006.75;;;13.95;90.78
72395;BME280;60384;48.152;11.614;2023-05-08T04:06:27;96010.78;;;13.89;90.60
72395;BME280;60384;48.152;11.614;2023-05-08T04:09:33;96017.91;;;13.85;90.61
72395;BME280;60384;48.152;11.614;2023-05-08T04:12:38;96017.47;;;13.83;90.64
72395;BME280;60384;48.152;11.614;2023-05-08T04:15:42;96020.94;;;13.84;90.65
72395;BME280;60384;48.152;11.614;2023-05-08T04:18:45;96020.16;;;13.83;90.89
72395;BME280;60384;48.152;11.614;2023-05-08T04:21:49;96025.66;;;13.87;91.15
72395;BME280;60384;48.152;11.614;2023-05-08T04:24:56;96023.63;;;13.84;91.09
72395;BME280;60384;48.152;11.614;2023-05-08T04:27:59;96028.53;;;13.82;91.20
72395;BME280;60384;48.152;11.614;2023-05-08T04:31:02;96028.72;;;13.77;90.84
72395;BME280;60384;48.152;11.614;2023-05-08T04:34:05;96033.63;;;13.75;91.05
72395;BME280;60384;48.152;11.614;2023-05-08T04:37:21;96032.41;;;13.72;91.10
72395;BME280;60384;48.152;11.614;2023-05-08T04:40:23;96037.31;;;13.70;90.64
72395;BME280;60384;48.152;11.614;2023-05-08T04:43:24;96037.31;;;13.70;90.57
72395;BME280;60384;48.152;11.614;2023-05-08T04:46:26;96041.09;;;13.69;90.98
72395;BME280;60384;48.152;11.614;2023-05-08T04:49:28;96036.03;;;13.68;90.68
72395;BME280;60384;48.152;11.614;2023-05-08T04:52:31;96039.41;;;13.64;90.53
72395;BME280;60384;48.152;11.614;2023-05-08T04:55:33;96050.34;;;13.59;90.57
72395;BME280;60384;48.152;11.614;2023-05-08T04:58:35;96048.28;;;13.56;90.90
72395;BME280;60384;48.152;11.614;2023-05-08T05:01:38;96048.63;;;13.55;90.79
72395;BME280;60384;48.152;11.614;2023-05-08T05:04:41;96054.44;;;13.57;90.45
72395;BME280;60384;48.152;11.614;2023-05-08T05:07:45;96058.69;;;13.58;90.89
72395;BME280;60384;48.152;11.614;2023-05-08T05:10:48;96061.25;;;13.54;90.82
72395;BME280;60384;48.152;11.614;2023-05-08T05:13:49;96067.94;;;13.48;90.99
72395;BME280;60384;48.152;11.614;2023-05-08T05:16:51;96076.34;;;13.38;90.29
72395;BME280;60384;48.152;11.614;2023-05-08T05:19:53;96074.63;;;13.34;90.38
72395;BME280;60384;48.152;11.614;2023-05-08T05:22:56;96082.22;;;13.32;90.75
72395;BME280;60384;48.152;11.614;2023-05-08T05:25:59;96079.84;;;13.30;90.85
72395;BME280;60384;48.152;11.614;2023-05-08T05:29:01;96083.31;;;13.31;90.45
72395;BME280;60384;48.152;11.614;2023-05-08T05:32:03;96072.59;;;13.31;90.43
72395;BME280;60384;48.152;11.614;2023-05-08T05:35:07;96088.38;;;13.32;90.89
72395;BME280;60384;48.152;11.614;2023-05-08T05:38:11;96085.69;;;13.32;90.90
72395;BME280;60384;48.152;11.614;2023-05-08T05:41:12;96089.16;;;13.33;90.77
72395;BME280;60384;48.152;11.614;2023-05-08T05:44:15;96086.94;;;13.35;90.32
72395;BME280;60384;48.152;11.614;2023-05-08T05:47:16;96091.19;;;13.36;91.00
72395;BME280;60384;48.152;11.614;2023-05-08T05:50:18;96084.91;;;13.32;90.59
72395;BME280;60384;48.152;11.614;2023-05-08T05:53:22;96092.63;;;13.33;90.44
72395;BME280;60384;48.152;11.614;2023-05-08T05:56:24;96099.91;;;13.33;90.77
72395;BME280;60384;48.152;11.614;2023-05-08T05:59:26;96102.44;;;13.29;90.52
72395;BME280;60384;48.152;11.614;2023-05-08T06:02:28;96096.28;;;13.29;90.61
72395;BME280;60384;48.152;11.614;2023-05-08T06:05:30;96109.25;;;13.27;90.94
72395;BME280;60384;48.152;11.614;2023-05-08T06:08:33;96107.66;;;13.26;90.88
72395;BME280;60384;48.152;11.614;2023-05-08T06:11:35;96104.63;;;13.27;90.74
72395;BME280;60384;48.152;11.614;2023-05-08T06:14:37;96107.66;;;13.26;90.95
72395;BME280;60384;48.152;11.614;2023-05-08T06:17:39;96113.22;;;13.20;90.37
72395;BME280;60384;48.152;11.614;2023-05-08T06:20:40;96106.56;;;13.18;90.93
72395;BME280;60384;48.152;11.614;2023-05-08T06:23:43;96105.94;;;13.21;90.70
72395;BME280;60384;48.152;11.614;2023-05-08T06:26:45;96111.13;;;13.26;90.60
72395;BME280;60384;48.152;11.614;2023-05-08T06:29:47;96115.53;;;13.31;90.59
72395;BME280;60384;48.152;11.614;2023-05-08T06:32:50;96108.09;;;13.36;90.25
72395;BME280;60384;48.152;11.614;2023-05-08T06:35:52;96105.34;;;13.45;90.12
72395;BME280;60384;48.152;11.614;2023-05-08T06:38:55;96113.22;;;13.50;89.75
72395;BME280;60384;48.152;11.614;2023-05-08T06:41:57;96113.88;;;13.47;90.32
72395;BME280;60384;48.152;11.614;2023-05-08T06:45:03;96108.97;;;13.49;89.85
72395;BME280;60384;48.152;11.614;2023-05-08T06:48:05;96107.84;;;13.50;89.90
72395;BME280;60384;48.152;11.614;2023-05-08T06:51:07;96115.72;;;13.55;90.36
72395;BME280;60384;48.152;11.614;2023-05-08T06:54:10;96123.59;;;13.60;89.87
72395;BME280;60384;48.152;11.614;2023-05-08T06:57:12;96118.31;;;13.72;89.63
72395;BME280;60384;48.152;11.614;2023-05-08T07:00:14;96121.59;;;13.78;90.02
72395;BME280;60384;48.152;11.614;2023-05-08T07:03:15;96119.38;;;13.80;89.60
72395;BME280;60384;48.152;11.614;2023-05-08T07:06:17;96124.88;;;13.83;89.70
72395;BME280;60384;48.152;11.614;2023-05-08T07:09:20;96125.13;;;13.90;89.52
72395;BME280;60384;48.152;11.614;2023-05-08T07:12:22;96127.31;;;13.97;89.91
72395;BME280;60384;48.152;11.614;2023-05-08T07:15:23;96130.94;;;14.01;89.82
72395;BME280;60384;48.152;11.614;2023-05-08T07:18:25;96125.56;;;14.01;89.18
72395;BME280;60384;48.152;11.614;2023-05-08T07:21:27;96125.81;;;14.08;89.20
72395;BME280;60384;48.152;11.614;2023-05-08T07:24:30;96119.91;;;14.15;89.79
72395;BME280;60384;48.152;11.614;2023-05-08T07:27:33;96130.63;;;14.23;89.21
72395;BME280;60384;48.152;11.614;2023-05-08T07:30:35;96132.63;;;14.26;89.68
72395;BME280;60384;48.152;11.614;2023-05-08T07:33:36;96133.44;;;14.27;89.40
72395;BME280;60384;48.152;11.614;2023-05-08T07:36:38;96139.72;;;14.31;89.14
72395;BME280;60384;48.152;11.614;2023-05-08T07:39:41;96142.53;;;14.34;89.13
72395;BME280;60384;48.152;11.614;2023-05-08T07:42:43;96135.75;;;14.37;89.45
72395;BME280;60384;48.152;11.614;2023-05-08T07:45:45;96143.94;;;14.40;89.13
72395;BME280;60384;48.152;11.614;2023-05-08T07:48:47;96143.75;;;14.45;88.85
72395;BME280;60384;48.152;11.614;2023-05-08T07:51:48;96140.72;;;14.47;88.80
72395;BME280;60384;48.152;11.614;2023-05-08T07:54:51;96137.06;;;14.52;88.65
72395;BME280;60384;48.152;11.614;2023-05-08T07:57:53;96143.81;;;14.58;88.81
72395;BME280;60384;48.152;11.614;2023-05-08T08:00:54;96139.13;;;14.67;88.72
72395;BME280;60384;48.152;11.614;2023-05-08T08:03:56;96136.03;;;14.77;88.83
72395;BME280;60384;48.152;11.614;2023-05-08T08:06:58;96142.22;;;14.89;89.09
72395;BME280;60384;48.152;11.614;2023-05-08T08:10:01;96137.66;;;15.02;88.77
72395;BME280;60384;48.152;11.614;2023-05-08T08:13:03;96141.38;;;15.10;88.81
72395;BME280;60384;48.152;11.614;2023-05-08T08:16:05;96140.94;;;15.08;88.57
72395;BME280;60384;48.152;11.614;2023-05-08T08:19:07;96136.13;;;15.13;88.01
72395;BME280;60384;48.152;11.614;2023-05-08T08:22:10;96136.00;;;15.22;88.26
72395;BME280;60384;48.152;11.614;2023-05-08T08:25:13;96140.53;;;15.30;88.24
72395;BME280;60384;48.152;11.614;2023-05-08T08:28:14;96139.06;;;15.32;88.13
72395;BME280;60384;48.152;11.614;2023-05-08T08:31:17;96142.44;;;15.29;88.24
72395;BME280;60384;48.152;11.614;2023-05-08T08:34:19;96144.00;;;15.30;88.29
72395;BME280;60384;48.152;11.614;2023-05-08T08:37:21;96146.81;;;15.34;88.18
72395;BME280;60384;48.152;11.614;2023-05-08T08:40:24;96145.56;;;15.44;88.34
72395;BME280;60384;48.152;11.614;2023-05-08T08:43:26;96152.81;;;15.52;88.44
72395;BME280;60384;48.152;11.614;2023-05-08T08:46:28;96150.00;;;15.60;87.90
72395;BME280;60384;48.152;11.614;2023-05-08T08:49:32;96145.63;;;15.68;88.13
72395;BME280;60384;48.152;11.614;2023-05-08T08:52:38;96145.16;;;15.78;88.05
72395;BME280;60384;48.152;11.614;2023-05-08T08:55:43;96136.50;;;15.97;87.74
72395;BME280;60384;48.152;11.614;2023-05-08T08:58:46;96137.84;;;16.15;87.38
72395;BME280;60384;48.152;11.614;2023-05-08T09:01:52;96144.78;;;16.16;87.31
72395;BME280;60384;48.152;11.614;2023-05-08T09:04:55;96141.06;;;16.21;87.13
72395;BME280;60384;48.152;11.614;2023-05-08T09:07:57;96140.38;;;16.24;87.02
72395;BME280;60384;48.152;11.614;2023-05-08T09:11:00;96138.44;;;16.36;87.05
72395;BME280;60384;48.152;11.614;2023-05-08T09:14:02;96134.25;;;16.51;86.65
72395;BME280;60384;48.152;11.614;2023-05-08T09:17:04;96138.84;;;16.63;86.60
72395;BME280;60384;48.152;11.614;2023-05-08T09:20:06;96136.72;;;16.84;86.41
72395;BME280;60384;48.152;11.614;2023-05-08T09:23:08;96141.47;;;17.03;86.43
72395;BME280;60384;48.152;11.614;2023-05-08T09:26:12;96144.53;;;17.17;86.09
72395;BME280;60384;48.152;11.614;2023-05-08T09:29:26;96139.94;;;17.17;86.07
72395;BME280;60384;48.152;11.614;2023-05-08T09:32:28;96147.69;;;17.19;86.14
72395;BME280;60384;48.152;11.614;2023-05-08T09:35:34;96146.56;;;17.20;86.27
72395;BME280;60384;48.152;11.614;2023-05-08T09:38:36;96141.16;;;17.20;86.63
72395;BME280;60384;48.152;11.614;2023-05-08T09:41:39;96136.03;;;17.30;86.26
72395;BME280;60384;48.152;11.614;2023-05-08T09:44:56;96148.03;;;17.33;86.07
72395;BME280;60384;48.152;11.614;2023-05-08T09:47:58;96141.59;;;17.38;86.05
72395;BME280;60384;48.152;11.614;2023-05-08T09:51:04;96142.75;;;17.37;86.08
72395;BME280;60384;48.152;11.614;2023-05-08T09:54:06;96145.97;;;17.42;86.28
72395;BME280;60384;48.152;11.614;2023-05-08T09:57:18;96148.59;;;17.70;85.92
72395;BME280;60384;48.152;11.614;2023-05-08T10:00:21;96147.97;;;17.92;85.93
72395;BME280;60384;48.152;11.614;2023-05-08T10:03:23;96149.56;;;18.12;85.37
72395;BME280;60384;48.152;11.614;2023-05-08T10:06:27;96144.47;;;18.27;85.46
72395;BME280;60384;48.152;11.614;2023-05-08T10:09:28;96139.13;;;18.30;85.07
72395;BME280;60384;48.152;11.614;2023-05-08T10:12:31;96141.06;;;18.30;84.87
72395;BME280;60384;48.152;11.614;2023-05-08T10:15:33;96139.84;;;18.46;85.11
72395;BME280;60384;48.152;11.614;2023-05-08T10:18:38;96142.13;;;18.60;84.57
72395;BME280;60384;48.152;11.614;2023-05-08T10:21:41;96147.38;;;18.72;84.56
72395;BME280;60384;48.152;11.614;2023-05-08T10:24:44;96140.66;;;18.85;84.32
72395;BME280;60384;48.152;11.614;2023-05-08T10:27:50;96138.41;;;18.87;84.16
72395;BME280;60384;48.152;11.614;2023-05-08T10:30:54;96134.69;;;18.95;84.38
72395;BME280;60384;48.152;11.614;2023-05-08T10:33:56;96134.81;;;19.03;84.08
72395;BME280;60384;48.152;11.614;2023-05-08T10:37:01;96134.94;;;19.10;84.32
72395;BME280;60384;48.152;11.614;2023-05-08T10:40:03;96135.19;;;19.24;84.04
72395;BME280;60384;48.152;11.614;2023-05-08T10:43:06;96133.16;;;19.40;84.19
72395;BME280;60384;48.152;11.614;2023-05-08T10:46:10;96132.53;;;19.47;83.91
72395;BME280;60384;48.152;11.614;2023-05-08T10:49:18;96127.50;;;19.49;84.08
72395;BME280;60384;48.152;11.614;2023-05-08T10:52:22;96134.28;;;19.58;83.87
72395;BME280;60384;48.152;11.614;2023-05-08T10:55:28;96126.97;;;19.62;84.01
72395;BME280;60384;48.152;11.614;2023-05-08T10:58:31;96119.78;;;19.73;84.03
72395;BME280;60384;48.152;11.614;2023-05-08T11:01:33;96120.56;;;19.74;84.03
72395;BME280;60384;48.152;11.614;2023-05-08T11:04:39;96119.78;;;19.73;84.00
72395;BME280;60384;48.152;11.614;2023-05-08T11:07:53;96115.47;;;19.69;83.94
72395;BME280;60384;48.152;11.614;2023-05-08T11:10:59;96112.69;;;19.65;84.30
72395;BME280;60384;48.152;11.614;2023-05-08T11:14:12;96122.03;;;19.68;84.41
72395;BME280;60384;48.152;11.614;2023-05-08T11:17:19;96115.78;;;19.64;84.55
72395;BME280;60384;48.152;11.614;2023-05-08T11:20:23;96120.56;;;19.74;84.66
72395;BME280;60384;48.152;11.614;2023-05-08T11:23:38;96120.53;;;19.70;84.39
72395;BME280;60384;48.152;11.614;2023-05-08T11:26:39;96114.78;;;19.75;84.53
72395;BME280;60384;48.152;11.614;2023-05-08T11:29:42;96123.25;;;19.70;84.46
72395;BME280;60384;48.152;11.614;2023-05-08T11:32:55;96109.38;;;19.75;84.59
72395;BME280;60384;48.152;11.614;2023-05-08T11:35:57;96102.91;;;19.84;84.93
72395;BME280;60384;48.152;11.614;2023-05-08T11:39:05;96106.16;;;19.93;84.72
72395;BME280;60384;48.152;11.614;2023-05-08T11:42:32;96101.91;;;19.95;84.61
72395;BME280;60384;48.152;11.614;2023-05-08T11:45:35;96108.78;;;19.89;84.51
72395;BME280;60384;48.152;11.614;2023-05-08T11:48:39;96110.88;;;19.99;84.55
72395;BME280;60384;48.152;11.614;2023-05-08T11:51:41;96106.34;;;20.33;84.24
72395;BME280;60384;48.152;11.614;2023-05-08T11:54:45;96115.16;;;20.90;83.12
72395;BME280;60384;48.152;11.614;2023-05-08T11:57:46;96108.56;;;21.28;81.40
72395;BME280;60384;48.152;11.614;2023-05-08T12:00:49;96108.47;;;21.58;80.17
72395;BME280;60384;48.152;11.614;2023-05-08T12:03:58;96117.50;;;21.76;79.11
72395;BME280;60384;48.152;11.614;2023-05-08T12:07:00;96111.19;;;21.61;79.44
72395;BME280;60384;48.152;11.614;2023-05-08T12:10:02;96116.47;;;21.43;80.61
72395;BME280;60384;48.152;11.614;2023-05-08T12:13:13;96119.13;;;21.36;81.24
72395;BME280;60384;48.152;11.614;2023-05-08T12:16:17;96111.84;;;21.48;80.99
72395;BME280;60384;48.152;11.614;2023-05-08T12:19:18;96118.56;;;21.57;81.05
72395;BME280;60384;48.152;11.614;2023-05-08T12:22:20;96112.75;;;21.62;81.38
72395;BME280;60384;48.152;11.614;2023-05-08T12:25:22;96121.56;;;21.49;81.75
72395;BME280;60384;48.152;11.614;2023-05-08T12:28:25;96121.19;;;21.47;82.18
72395;BME280;60384;48.152;11.614;2023-05-08T12:31:28;96113.06;;;21.54;82.09
72395;BME280;60384;48.152;11.614;2023-05-08T12:34:30;96105.75;;;21.61;82.34
72395;BME280;60384;48.152;11.614;2023-05-08T12:37:32;96114.69;;;21.58;82.16
72395;BME280;60384;48.152;11.614;2023-05-08T12:40:34;96111.41;;;21.42;82.56
72395;BME280;60384;48.152;11.614;2023-05-08T12:43:36;96114.53;;;21.40;82.60
72395;BME280;60384;48.152;11.614;2023-05-08T12:46:45;96123.31;;;21.27;83.18
72395;BME280;60384;48.152;11.614;2023-05-08T12:49:47;96120.81;;;21.11;83.52
72395;BME280;60384;48.152;11.614;2023-05-08T12:52:50;96111.09;;;21.10;83.80
72395;BME280;60384;48.152;11.614;2023-05-08T12:55:52;96110.63;;;21.01;83.68
72395;BME280;60384;48.152;11.614;2023-05-08T12:58:57;96114.84;;;20.98;83.93
72395;BME280;60384;48.152;11.614;2023-05-08T13:02:00;96109.66;;;20.83;84.12
72395;BME280;60384;48.152;11.614;2023-05-08T13:05:02;96106.38;;;20.67;84.12
72395;BME280;60384;48.152;11.614;2023-05-08T13:08:06;96107.63;;;20.43;84.50
72395;BME280;60384;48.152;11.614;2023-05-08T13:11:08;96103.13;;;20.28;85.28
72395;BME280;60384;48.152;11.614;2023-05-08T13:14:10;96100.22;;;20.13;85.74
72395;BME280;60384;48.152;11.614;2023-05-08T13:17:16;96106.69;;;20.05;85.88
72395;BME280;60384;48.152;11.614;2023-05-08T13:20:18;96104.00;;;19.79;85.88
72395;BME280;60384;48.152;11.614;2023-05-08T13:23:19;96109.94;;;19.62;85.95
72395;BME280;60384;48.152;11.614;2023-05-08T13:26:21;96101.47;;;19.44;86.22
72395;BME280;60384;48.152;11.614;2023-05-08T13:29:24;96105.47;;;19.27;86.35
72395;BME280;60384;48.152;11.614;2023-05-08T13:32:27;96099.84;;;19.17;86.65
72395;BME280;60384;48.152;11.614;2023-05-08T13:35:29;96105.00;;;19.03;86.48
72395;BME280;60384;48.152;11.614;2023-05-08T13:38:31;96109.59;;;18.98;86.53
72395;BME280;60384;48.152;11.614;2023-05-08T13:41:33;96103.78;;;18.96;86.50
72395;BME280;60384;48.152;11.614;2023-05-08T13:44:35;96095.25;;;18.98;86.33
72395;BME280;60384;48.152;11.614;2023-05-08T13:47:38;96094.31;;;19.10;86.19
72395;BME280;60384;48.152;11.614;2023-05-08T13:50:39;96083.59;;;19.17;85.92
72395;BME280;60384;48.152;11.614;2023-05-08T13:53:41;96100.28;;;19.19;85.69
72395;BME280;60384;48.152;11.614;2023-05-08T13:56:43;96091.91;;;19.27;85.54
72395;BME280;60384;48.152;11.614;2023-05-08T13:59:44;96094.00;;;19.37;85.18
72395;BME280;60384;48.152;11.614;2023-05-08T14:02:47;96095.22;;;19.40;85.25
72395;BME280;60384;48.152;11.614;2023-05-08T14:05:49;96092.75;;;19.31;85.27
72395;BME280;60384;48.152;11.614;2023-05-08T14:08:51;96098.28;;;19.16;85.27
72395;BME280;60384;48.152;11.614;2023-05-08T14:11:52;96094.56;;;19.01;85.44
72395;BME280;60384;48.152;11.614;2023-05-08T14:14:54;96093.09;;;18.84;85.35
72395;BME280;60384;48.152;11.614;2023-05-08T14:17:57;96090.47;;;18.69;85.68
72395;BME280;60384;48.152;11.614;2023-05-08T14:21:00;96094.19;;;18.61;85.84
72395;BME280;60384;48.152;11.614;2023-05-08T14:24:02;96094.47;;;18.55;86.04
72395;BME280;60384;48.152;11.614;2023-05-08T14:27:03;96096.66;;;18.50;85.76
72395;BME280;60384;48.152;11.614;2023-05-08T14:30:05;96089.59;;;18.45;85.80
72395;BME280;60384;48.152;11.614;2023-05-08T14:33:09;96091.09;;;18.43;85.70
72395;BME280;60384;48.152;11.614;2023-05-08T14:36:11;96087.59;;;18.42;85.67
72395;BME280;60384;48.152;11.614;2023-05-08T14:39:12;96089.59;;;18.45;85.76
72395;BME280;60384;48.152;11.614;2023-05-08T14:42:14;96089.69;;;18.49;85.48
72395;BME280;60384;48.152;11.614;2023-05-08T14:45:16;96085.47;;;18.51;85.56
72395;BME280;60384;48.152;11.614;2023-05-08T14:48:19;96089.72;;;18.52;85.53
72395;BME280;60384;48.152;11.614;2023-05-08T14:51:20;96081.22;;;18.50;85.02
72395;BME280;60384;48.152;11.614;2023-05-08T14:54:22;96080.41;;;18.50;85.34
72395;BME280;60384;48.152;11.614;2023-05-08T14:57:24;96076.94;;;18.49;85.02
72395;BME280;60384;48.152;11.614;2023-05-08T15:00:25;96085.41;;;18.48;84.83
72395;BME280;60384;48.152;11.614;2023-05-08T15:03:28;96087.94;;;18.41;84.94
72395;BME280;60384;48.152;11.614;2023-05-08T15:06:30;96082.03;;;18.35;85.19
72395;BME280;60384;48.152;11.614;2023-05-08T15:09:34;96089.25;;;18.28;85.15
72395;BME280;60384;48.152;11.614;2023-05-08T15:12:36;96086.81;;;18.23;85.17
72395;BME280;60384;48.152;11.614;2023-05-08T15:15:37;96097.63;;;18.23;85.15
72395;BME280;60384;48.152;11.614;2023-05-08T15:18:40;96085.25;;;18.22;85.07
72395;BME280;60384;48.152;11.614;2023-05-08T15:21:42;96090.56;;;18.18;84.96
72395;BME280;60384;48.152;11.614;2023-05-08T15:24:44;96087.09;;;18.17;84.90
72395;BME280;60384;48.152;11.614;2023-05-08T15:27:45;96082.56;;;18.22;85.12
72395;BME280;60384;48.152;11.614;2023-05-08T15:30:51;96090.28;;;18.23;84.47
72395;BME280;60384;48.152;11.614;2023-05-08T15:33:55;96097.44;;;18.31;84.51
72395;BME280;60384;48.152;11.614;2023-05-08T15:36:57;96088.41;;;18.43;84.24
72395;BME280;60384;48.152;11.614;2023-05-08T15:39:58;96089.38;;;18.54;84.07
72395;BME280;60384;48.152;11.614;2023-05-08T15:43:00;96092.31;;;18.65;83.81
72395;BME280;60384;48.152;11.614;2023-05-08T15:46:03;96086.56;;;18.66;83.71
72395;BME280;60384;48.152;11.614;2023-05-08T15:49:06;96086.13;;;18.64;83.78
72395;BME280;60384;48.152;11.614;2023-05-08T15:52:08;96084.06;;;18.57;83.82
72395;BME280;60384;48.152;11.614;2023-05-08T15:55:09;96082.75;;;18.51;83.68
72395;BME280;60384;48.152;11.614;2023-05-08T15:58:11;96071.88;;;18.48;83.89
72395;BME280;60384;48.152;11.614;2023-05-08T16:01:13;96080.41;;;18.50;84.05